Time;durP1;ratioP1;P1;durP2;ratioP2;P2;SDS_P1;SDS_P2;PMS_P1;PMS_P2;Temp;Humidity;BMP_temperature;BMP_pressure;BME280_temperature;BME280_humidity;BME280_pressure;Samples;Min_cycle;Max_cycle;Signal;HPM_P1;HPM_P2
2023/05/14 00:00:09;;;;;;;2.30;2.00;;;;;;;;;;5026127;28;20021;-79
2023/05/14 00:02:35;;;;;;;3.50;2.40;;;;;;;;;;5038134;28;20078;-79
2023/05/14 00:05:00;;;;;;;18.42;13.15;;;;;;;;;;5045710;28;20412;-79
2023/05/14 00:07:29;;;;;;;7.03;6.32;;;;;;;;;;5039072;28;20806;-78
2023/05/14 00:09:55;;;;;;;9.48;5.22;;;;;;;;;;5041545;28;20044;-79
2023/05/14 00:12:20;;;;;;;4.47;4.03;;;;;;;;;;5032346;28;20511;-78
2023/05/14 00:14:45;;;;;;;4.90;4.50;;;;;;;;;;5026864;28;20120;-80
2023/05/14 00:17:10;;;;;;;5.15;4.75;;;;;;;;;;5043722;28;20259;-78
2023/05/14 00:19:36;;;;;;;4.28;3.83;;;;;;;;;;5025900;28;20041;-77
2023/05/14 00:22:01;;;;;;;5.60;2.60;;;;;;;;;;5024525;28;20530;-78
2023/05/14 00:24:27;;;;;;;2.75;2.20;;;;;;;;;;5045707;28;20494;-78
2023/05/14 00:26:52;;;;;;;2.85;2.22;;;;;;;;;;5044769;28;20013;-78
2023/05/14 00:29:17;;;;;;;3.75;1.90;;;;;;;;;;5040863;28;20036;-78
2023/05/14 00:31:42;;;;;;;4.15;2.22;;;;;;;;;;5005910;28;20491;-79
2023/05/14 00:34:08;;;;;;;3.47;2.13;;;;;;;;;;5037938;28;20040;-79
2023/05/14 00:36:33;;;;;;;2.10;1.90;;;;;;;;;;5013786;28;20482;-79
2023/05/14 00:38:58;;;;;;;2.03;1.87;;;;;;;;;;5015660;28;20026;-78
2023/05/14 00:41:23;;;;;;;2.80;1.90;;;;;;;;;;5019963;28;20280;-78
2023/05/14 00:43:49;;;;;;;3.47;1.83;;;;;;;;;;5023897;28;20638;-79
2023/05/14 00:46:15;;;;;;;2.67;2.10;;;;;;;;;;5029024;28;20415;-78
2023/05/14 00:48:40;;;;;;;2.65;2.03;;;;;;;;;;5043225;28;20691;-79
2023/05/14 00:51:05;;;;;;;3.17;2.20;;;;;;;;;;5029161;28;20069;-78
2023/05/14 00:53:31;;;;;;;1.98;1.80;;;;;;;;;;5023961;28;20045;-79
2023/05/14 00:55:57;;;;;;;2.05;1.85;;;;;;;;;;5043827;28;20043;-78
2023/05/14 00:58:22;;;;;;;4.20;1.80;;;;;;;;;;5038605;28;20017;-78
2023/05/14 01:00:47;;;;;;;3.50;1.75;;;;;;;;;;5033349;28;20017;-78
2023/05/14 01:03:13;;;;;;;4.10;1.80;;;;;;;;;;5042875;28;20064;-78
2023/05/14 01:05:41;;;;;;;3.38;1.77;;;;;;;;;;5041980;28;20025;-77
2023/05/14 01:08:12;;;;;;;2.75;1.75;;;;;;;;;;5014759;28;20112;-77
2023/05/14 01:10:41;;;;;;;2.03;1.80;;;;;;;;;;5022015;28;20829;-79
2023/05/14 01:13:15;;;;;;;1.83;1.70;;;;;;;;;;5034914;28;20018;-79
2023/05/14 01:15:41;;;;;;;1.60;1.50;;;;;;;;;;5026806;28;20032;-79
2023/05/14 01:18:08;;;;;;;2.15;1.63;;;;;;;;;;5044584;28;20037;-79
2023/05/14 01:20:33;;;;;;;3.05;1.90;;;;;;;;;;5011890;28;20021;-78
2023/05/14 01:22:58;;;;;;;4.95;1.75;;;;;;;;;;5043804;28;20043;-78
2023/05/14 01:25:24;;;;;;;2.30;1.92;;;;;;;;;;5026135;28;20033;-78
2023/05/14 01:28:22;;;;;;;2.28;1.80;;;;;;;;;;5021568;28;20026;-80
2023/05/14 01:31:00;;;;;;;2.08;1.75;;;;;;;;;;4978885;28;20346;-79
2023/05/14 01:33:28;;;;;;;2.55;1.38;;;;;;;;;;5016316;28;20052;-79
2023/05/14 01:35:53;;;;;;;1.90;1.50;;;;;;;;;;5036822;28;20017;-78
2023/05/14 01:38:19;;;;;;;4.40;2.05;;;;;;;;;;5024250;28;20017;-79
2023/05/14 01:40:45;;;;;;;5.07;1.88;;;;;;;;;;5040090;28;20020;-79
2023/05/14 01:43:11;;;;;;;1.88;1.60;;;;;;;;;;5030259;28;20023;-79
2023/05/14 01:45:42;;;;;;;2.20;1.60;;;;;;;;;;5043300;28;20051;-79
2023/05/14 01:48:07;;;;;;;3.03;2.17;;;;;;;;;;5043235;28;20469;-80
2023/05/14 01:50:33;;;;;;;2.33;1.70;;;;;;;;;;5024309;28;20092;-79
2023/05/14 01:52:58;;;;;;;2.40;2.05;;;;;;;;;;5028335;28;20053;-80
2023/05/14 01:55:24;;;;;;;2.05;1.75;;;;;;;;;;5005622;28;20054;-79
2023/05/14 01:57:50;;;;;;;4.43;1.70;;;;;;;;;;5039225;28;20560;-78
2023/05/14 02:00:22;;;;;;;5.43;1.67;;;;;;;;;;5003935;28;20048;-78
2023/05/14 02:02:47;;;;;;;2.75;1.60;;;;;;;;;;5035714;28;20032;-77
2023/05/14 02:05:12;;;;;;;2.30;1.90;;;;;;;;;;5019919;28;20030;-79
2023/05/14 02:08:00;;;;;;;3.17;1.88;;;;;;;;;;5007499;28;20045;-80
2023/05/14 02:10:25;;;;;;;3.08;1.88;;;;;;;;;;5022937;28;20609;-79
2023/05/14 02:12:54;;;;;;;3.60;1.85;;;;;;;;;;5043864;28;20029;-77
2023/05/14 02:15:22;;;;;;;6.07;1.70;;;;;;;;;;5027492;28;20048;-78
2023/05/14 02:17:48;;;;;;;2.38;2.00;;;;;;;;;;5003218;28;20033;-77
2023/05/14 02:20:13;;;;;;;2.95;2.00;;;;;;;;;;5009810;28;20113;-77
2023/05/14 02:22:41;;;;;;;4.47;1.83;;;;;;;;;;5026218;28;20086;-77
2023/05/14 02:25:24;;;;;;;3.50;2.10;;;;;;;;;;5027137;28;20072;-75
2023/05/14 02:27:49;;;;;;;4.13;2.30;;;;;;;;;;5018208;28;20053;-76
2023/05/14 02:30:20;;;;;;;3.60;2.20;;;;;;;;;;5036345;28;20560;-78
2023/05/14 02:33:03;;;;;;;3.45;2.55;;;;;;;;;;5026774;28;20029;-79
2023/05/14 02:38:34;;;;;;;4.13;2.53;;;;;;;;;;5030380;28;20052;-78
2023/05/14 02:41:15;;;;;;;2.28;2.08;;;;;;;;;;5026553;28;20113;-80
2023/05/14 02:43:40;;;;;;;6.13;2.60;;;;;;;;;;5050325;28;20017;-77
2023/05/14 02:46:05;;;;;;;2.83;2.50;;;;;;;;;;5046163;28;20040;-77
2023/05/14 02:48:40;;;;;;;6.13;3.40;;;;;;;;;;5045947;28;20601;-79
2023/05/14 02:51:06;;;;;;;2.97;2.67;;;;;;;;;;5047775;28;20028;-77
2023/05/14 02:53:31;;;;;;;5.60;3.20;;;;;;;;;;5044616;28;20064;-79
2023/05/14 02:55:57;;;;;;;2.85;2.60;;;;;;;;;;5030948;28;20017;-78
2023/05/14 02:58:29;;;;;;;2.92;2.72;;;;;;;;;;5048062;28;20034;-79
2023/05/14 03:00:56;;;;;;;5.07;2.67;;;;;;;;;;5053986;28;20443;-78
2023/05/14 03:03:28;;;;;;;5.10;2.65;;;;;;;;;;5053613;28;20021;-80
2023/05/14 03:06:14;;;;;;;4.18;2.30;;;;;;;;;;5044015;28;20029;-80
2023/05/14 03:08:40;;;;;;;3.13;2.55;;;;;;;;;;5012720;28;20387;-79
2023/05/14 03:11:11;;;;;;;3.20;2.90;;;;;;;;;;5039019;28;20103;-78
2023/05/14 03:13:37;;;;;;;3.15;2.30;;;;;;;;;;5041701;28;20024;-75
2023/05/14 03:16:02;;;;;;;3.70;2.60;;;;;;;;;;5040511;28;20135;-76
2023/05/14 03:18:29;;;;;;;3.37;2.57;;;;;;;;;;5027066;28;20029;-76
2023/05/14 03:20:57;;;;;;;3.55;2.70;;;;;;;;;;5044040;28;20649;-80
2023/05/14 03:23:27;;;;;;;3.83;2.90;;;;;;;;;;5018502;28;20022;-79
2023/05/14 03:25:52;;;;;;;4.65;3.08;;;;;;;;;;5006187;28;20057;-77
2023/05/14 03:28:17;;;;;;;4.60;2.90;;;;;;;;;;5027616;28;20068;-78
2023/05/14 03:30:43;;;;;;;4.40;2.78;;;;;;;;;;5027451;28;20032;-81
2023/05/14 03:33:08;;;;;;;5.15;2.88;;;;;;;;;;5034808;28;20020;-77
2023/05/14 03:35:33;;;;;;;3.70;2.85;;;;;;;;;;5047924;28;20028;-78
2023/05/14 03:37:58;;;;;;;3.92;2.70;;;;;;;;;;5025958;28;20468;-80
2023/05/14 03:40:24;;;;;;;2.92;2.60;;;;;;;;;;5047833;28;20025;-80
2023/05/14 03:42:49;;;;;;;3.50;2.65;;;;;;;;;;5027178;28;20059;-77
2023/05/14 03:45:15;;;;;;;4.15;2.75;;;;;;;;;;5039738;28;20033;-76
2023/05/14 03:47:46;;;;;;;3.08;2.72;;;;;;;;;;5053565;28;20033;-79
2023/05/14 03:50:11;;;;;;;4.75;3.13;;;;;;;;;;5046933;28;20098;-77
2023/05/14 03:52:37;;;;;;;3.20;2.90;;;;;;;;;;5050100;28;20627;-80
2023/05/14 03:55:02;;;;;;;3.55;3.00;;;;;;;;;;5045925;28;20297;-79
2023/05/14 03:57:27;;;;;;;3.30;3.00;;;;;;;;;;5014490;28;20486;-79
2023/05/14 03:59:53;;;;;;;4.90;2.80;;;;;;;;;;5040035;28;20033;-78
2023/05/14 04:02:18;;;;;;;4.07;3.13;;;;;;;;;;5027229;28;20460;-78
2023/05/14 04:04:43;;;;;;;3.67;2.63;;;;;;;;;;5041384;28;20029;-79
2023/05/14 04:07:08;;;;;;;5.57;3.30;;;;;;;;;;5008359;28;20529;-75
2023/05/14 04:09:34;;;;;;;6.45;3.53;;;;;;;;;;5034965;28;20086;-76
2023/05/14 04:12:02;;;;;;;4.10;3.25;;;;;;;;;;5028803;28;20410;-80
2023/05/14 04:14:28;;;;;;;3.95;3.53;;;;;;;;;;5028991;28;20029;-78
2023/05/14 04:16:53;;;;;;;4.90;3.30;;;;;;;;;;5031937;28;20026;-78
2023/05/14 04:19:18;;;;;;;6.47;3.08;;;;;;;;;;5016213;28;20013;-77
2023/05/14 04:21:44;;;;;;;3.20;2.88;;;;;;;;;;5022086;28;20033;-75
2023/05/14 04:24:18;;;;;;;6.20;2.90;;;;;;;;;;5020965;28;20021;-77
2023/05/14 04:26:45;;;;;;;4.03;3.03;;;;;;;;;;5009418;28;20053;-77
2023/05/14 04:29:10;;;;;;;5.25;2.72;;;;;;;;;;4999664;28;20024;-77
2023/05/14 04:31:35;;;;;;;5.13;2.70;;;;;;;;;;4999681;28;20753;-80
2023/05/14 04:34:03;;;;;;;3.47;3.17;;;;;;;;;;4994860;28;20161;-77
2023/05/14 04:36:30;;;;;;;3.75;3.05;;;;;;;;;;5056800;28;20108;-79
2023/05/14 04:38:55;;;;;;;3.45;3.15;;;;;;;;;;5023555;28;20028;-75
2023/05/14 04:41:20;;;;;;;4.63;3.40;;;;;;;;;;5025299;28;20021;-77
2023/05/14 04:43:46;;;;;;;4.43;3.63;;;;;;;;;;5029579;28;20044;-77
2023/05/14 04:46:12;;;;;;;4.35;3.08;;;;;;;;;;5019296;28;20513;-76
2023/05/14 04:48:38;;;;;;;3.55;2.70;;;;;;;;;;5026680;28;20021;-78
2023/05/14 04:51:03;;;;;;;3.88;3.17;;;;;;;;;;5016646;28;20040;-77
2023/05/14 04:53:29;;;;;;;4.38;3.42;;;;;;;;;;5044484;28;20090;-76
2023/05/14 04:55:54;;;;;;;4.03;3.63;;;;;;;;;;5040554;28;20387;-75
2023/05/14 04:58:23;;;;;;;3.42;2.72;;;;;;;;;;5031298;28;20047;-78
2023/05/14 05:00:49;;;;;;;3.58;3.28;;;;;;;;;;5041160;28;20054;-77
2023/05/14 05:03:14;;;;;;;7.72;3.45;;;;;;;;;;5051027;28;20012;-77
2023/05/14 05:05:39;;;;;;;4.03;3.10;;;;;;;;;;5047307;28;20029;-76
2023/05/14 05:08:05;;;;;;;4.22;3.10;;;;;;;;;;5036061;28;20068;-78
2023/05/14 05:10:31;;;;;;;3.70;3.40;;;;;;;;;;5046698;28;20048;-79
2023/05/14 05:12:56;;;;;;;4.05;3.25;;;;;;;;;;5034862;28;20060;-79
2023/05/14 05:15:22;;;;;;;6.00;3.53;;;;;;;;;;5018311;28;20045;-77
2023/05/14 05:17:47;;;;;;;3.53;3.22;;;;;;;;;;4998079;28;20388;-77
2023/05/14 05:20:12;;;;;;;4.20;3.58;;;;;;;;;;5004485;28;20009;-79
2023/05/14 05:22:39;;;;;;;4.10;3.50;;;;;;;;;;5046417;28;20021;-80
2023/05/14 05:25:06;;;;;;;4.70;4.10;;;;;;;;;;5024611;28;20038;-76
2023/05/14 05:27:32;;;;;;;5.20;4.07;;;;;;;;;;5009169;28;20035;-78
2023/05/14 05:29:57;;;;;;;4.05;3.75;;;;;;;;;;5031654;28;20030;-77
2023/05/14 05:32:50;;;;;;;8.13;4.68;;;;;;;;;;5057739;28;20013;-79
2023/05/14 05:35:15;;;;;;;4.82;4.40;;;;;;;;;;5025136;28;20033;-80
2023/05/14 05:37:41;;;;;;;7.95;4.72;;;;;;;;;;5017637;28;20005;-76
2023/05/14 05:40:08;;;;;;;5.82;5.32;;;;;;;;;;5040022;28;20025;-76
2023/05/14 05:42:59;;;;;;;6.40;4.70;;;;;;;;;;5025971;28;20018;-78
2023/05/14 05:45:25;;;;;;;7.43;4.93;;;;;;;;;;5024015;28;20041;-76
2023/05/14 05:47:50;;;;;;;5.78;5.25;;;;;;;;;;5022408;28;20029;-76
2023/05/14 05:50:15;;;;;;;5.85;5.25;;;;;;;;;;5008141;28;20026;-77
2023/05/14 05:52:40;;;;;;;8.00;5.75;;;;;;;;;;5024752;28;20021;-77
2023/05/14 05:55:06;;;;;;;7.63;6.20;;;;;;;;;;5019314;28;20692;-77
2023/05/14 05:57:31;;;;;;;7.30;6.10;;;;;;;;;;5018702;28;20018;-77
2023/05/14 05:59:57;;;;;;;9.45;5.57;;;;;;;;;;5006711;28;20031;-78
2023/05/14 06:02:23;;;;;;;9.68;6.47;;;;;;;;;;5020080;28;20013;-78
2023/05/14 06:04:49;;;;;;;10.15;5.60;;;;;;;;;;5020494;28;20032;-78
2023/05/14 06:07:14;;;;;;;6.38;5.88;;;;;;;;;;5015527;28;20556;-78
2023/05/14 06:09:39;;;;;;;6.82;6.22;;;;;;;;;;4989393;28;20029;-76
2023/05/14 06:12:05;;;;;;;6.43;5.50;;;;;;;;;;5001171;28;20029;-77
2023/05/14 06:14:30;;;;;;;5.70;5.18;;;;;;;;;;5017966;28;20018;-78
2023/05/14 06:16:56;;;;;;;6.40;5.33;;;;;;;;;;5019299;28;20410;-76
2023/05/14 06:19:21;;;;;;;8.00;5.63;;;;;;;;;;4997649;28;20311;-77
2023/05/14 06:21:47;;;;;;;6.35;5.32;;;;;;;;;;4990222;28;20030;-77
2023/05/14 06:24:12;;;;;;;7.93;6.05;;;;;;;;;;5011038;28;20064;-75
2023/05/14 06:26:39;;;;;;;7.60;6.80;;;;;;;;;;5008405;28;20049;-79
2023/05/14 06:29:20;;;;;;;10.35;6.97;;;;;;;;;;5006797;28;20519;-79
2023/05/14 06:31:46;;;;;;;9.82;7.63;;;;;;;;;;4989851;28;20077;-78
2023/05/14 06:34:11;;;;;;;8.02;7.05;;;;;;;;;;5002913;28;20017;-79
2023/05/14 06:36:36;;;;;;;8.52;6.35;;;;;;;;;;5010149;28;20037;-77
2023/05/14 06:39:04;;;;;;;7.00;6.20;;;;;;;;;;4999231;28;20049;-79
2023/05/14 06:41:30;;;;;;;6.05;5.43;;;;;;;;;;4993563;28;20026;-80
2023/05/14 06:43:55;;;;;;;8.20;5.72;;;;;;;;;;5006119;28;20037;-78
2023/05/14 06:46:20;;;;;;;7.10;6.18;;;;;;;;;;5025239;28;20063;-77
2023/05/14 06:48:46;;;;;;;8.93;6.47;;;;;;;;;;5016708;28;20033;-76
2023/05/14 06:51:12;;;;;;;7.25;6.28;;;;;;;;;;4995127;28;20025;-78
2023/05/14 06:53:37;;;;;;;6.72;6.05;;;;;;;;;;5004165;28;20491;-77
2023/05/14 06:56:03;;;;;;;8.02;6.88;;;;;;;;;;5009150;28;20022;-76
2023/05/14 06:58:28;;;;;;;7.95;5.90;;;;;;;;;;4990903;28;20026;-78
2023/05/14 07:00:54;;;;;;;9.93;6.78;;;;;;;;;;4986734;28;20087;-75
2023/05/14 07:03:20;;;;;;;10.68;9.68;;;;;;;;;;4999630;28;20028;-76
2023/05/14 07:05:46;;;;;;;9.52;7.93;;;;;;;;;;4987437;28;20143;-76
2023/05/14 07:08:11;;;;;;;9.57;7.30;;;;;;;;;;4997491;28;20049;-76
2023/05/14 07:10:37;;;;;;;7.90;7.30;;;;;;;;;;5013332;28;20134;-78
2023/05/14 07:13:09;;;;;;;10.60;6.80;;;;;;;;;;5022344;28;20257;-78
2023/05/14 07:15:37;;;;;;;8.00;7.30;;;;;;;;;;5012484;28;20037;-79
2023/05/14 07:18:14;;;;;;;7.43;6.70;;;;;;;;;;5002066;28;20029;-79
2023/05/14 07:20:39;;;;;;;6.40;5.65;;;;;;;;;;5006326;28;20069;-77
2023/05/14 07:23:05;;;;;;;7.22;6.20;;;;;;;;;;4996444;28;20500;-76
2023/05/14 07:25:31;;;;;;;9.38;7.35;;;;;;;;;;4996229;28;20092;-76
2023/05/14 07:27:56;;;;;;;9.48;7.53;;;;;;;;;;4993360;28;20049;-77
2023/05/14 07:30:22;;;;;;;7.13;6.50;;;;;;;;;;5004007;28;20604;-75
2023/05/14 07:32:47;;;;;;;8.35;7.50;;;;;;;;;;5012367;28;20022;-77
2023/05/14 07:35:12;;;;;;;9.00;7.75;;;;;;;;;;5017398;28;20022;-76
2023/05/14 07:37:41;;;;;;;7.00;6.47;;;;;;;;;;5012854;28;20026;-76
2023/05/14 07:40:07;;;;;;;8.70;7.60;;;;;;;;;;5007923;28;20028;-77
2023/05/14 07:42:33;;;;;;;9.88;7.03;;;;;;;;;;5026210;28;20025;-75
2023/05/14 07:44:58;;;;;;;7.38;6.68;;;;;;;;;;5022871;28;20041;-75
2023/05/14 07:47:31;;;;;;;7.70;7.00;;;;;;;;;;5010875;28;20025;-78
2023/05/14 07:49:56;;;;;;;7.95;7.15;;;;;;;;;;5005511;28;20037;-75
2023/05/14 07:52:22;;;;;;;9.13;8.23;;;;;;;;;;5021247;28;20493;-76
2023/05/14 07:54:47;;;;;;;8.32;6.97;;;;;;;;;;5037354;28;20061;-76
2023/05/14 07:57:13;;;;;;;8.77;7.65;;;;;;;;;;5022383;28;20029;-77
2023/05/14 07:59:38;;;;;;;9.07;8.00;;;;;;;;;;5023502;28;20021;-75
2023/05/14 08:02:03;;;;;;;8.07;7.27;;;;;;;;;;5026377;28;20053;-80
2023/05/14 08:04:29;;;;;;;8.15;7.40;;;;;;;;;;5016338;28;20661;-78
2023/05/14 08:06:55;;;;;;;9.63;7.75;;;;;;;;;;5042545;28;20029;-76
2023/05/14 08:09:20;;;;;;;9.75;7.50;;;;;;;;;;5012448;28;20013;-78
2023/05/14 08:11:45;;;;;;;8.75;7.85;;;;;;;;;;5023583;28;20024;-76
2023/05/14 08:14:11;;;;;;;9.13;8.15;;;;;;;;;;5042294;28;20020;-75
2023/05/14 08:16:36;;;;;;;8.20;7.05;;;;;;;;;;5042112;28;20025;-77
2023/05/14 08:19:01;;;;;;;10.75;7.82;;;;;;;;;;5028287;28;20391;-76
2023/05/14 08:21:27;;;;;;;7.20;6.60;;;;;;;;;;5026809;28;20490;-79
2023/05/14 08:23:52;;;;;;;8.98;7.53;;;;;;;;;;5039404;28;20086;-79
2023/05/14 08:26:17;;;;;;;8.55;7.32;;;;;;;;;;5026857;28;20490;-77
2023/05/14 08:28:42;;;;;;;7.43;6.85;;;;;;;;;;5041035;28;20536;-79
2023/05/14 08:31:08;;;;;;;9.25;7.38;;;;;;;;;;5012170;28;20052;-80
2023/05/14 08:33:33;;;;;;;8.50;7.63;;;;;;;;;;4993928;28;20453;-79
2023/05/14 08:35:59;;;;;;;6.63;6.13;;;;;;;;;;5008945;28;20030;-79
2023/05/14 08:38:24;;;;;;;8.40;6.82;;;;;;;;;;4990310;28;20025;-78
2023/05/14 08:40:55;;;;;;;8.60;7.05;;;;;;;;;;5006150;28;20317;-77
2023/05/14 08:43:22;;;;;;;6.88;6.38;;;;;;;;;;4997245;28;20017;-77
2023/05/14 08:45:48;;;;;;;5.88;5.40;;;;;;;;;;5019400;28;20029;-78
2023/05/14 08:48:17;;;;;;;6.63;5.18;;;;;;;;;;5021815;28;20560;-77
2023/05/14 08:50:43;;;;;;;6.47;4.20;;;;;;;;;;5004895;28;20025;-77
2023/05/14 08:53:08;;;;;;;5.32;4.93;;;;;;;;;;5038018;28;20103;-78
2023/05/14 08:55:34;;;;;;;5.00;4.60;;;;;;;;;;5027380;28;20171;-76
2023/05/14 08:58:00;;;;;;;5.60;4.88;;;;;;;;;;5042211;28;20016;-77
2023/05/14 09:00:25;;;;;;;6.00;5.40;;;;;;;;;;5021632;28;20022;-79
2023/05/14 09:02:51;;;;;;;6.38;5.78;;;;;;;;;;5013630;28;20029;-75
2023/05/14 09:05:18;;;;;;;5.32;4.82;;;;;;;;;;5014931;28;20034;-80
2023/05/14 09:07:44;;;;;;;4.95;4.55;;;;;;;;;;5021708;28;20033;-78
2023/05/14 09:10:10;;;;;;;5.00;4.60;;;;;;;;;;5008217;28;20042;-76
2023/05/14 09:12:40;;;;;;;6.32;5.72;;;;;;;;;;5035314;28;20086;-76
2023/05/14 09:15:05;;;;;;;5.47;4.97;;;;;;;;;;5036960;28;20029;-77
2023/05/14 09:17:32;;;;;;;6.05;5.40;;;;;;;;;;5019922;28;20035;-77
2023/05/14 09:19:57;;;;;;;5.90;5.40;;;;;;;;;;5016987;28;20025;-76
2023/05/14 09:22:30;;;;;;;6.70;6.13;;;;;;;;;;5025824;28;20032;-79
2023/05/14 09:25:16;;;;;;;6.85;6.15;;;;;;;;;;5050188;28;20040;-80
2023/05/14 09:28:08;;;;;;;6.15;5.65;;;;;;;;;;5043887;28;20060;-79
2023/05/14 09:30:40;;;;;;;7.18;6.47;;;;;;;;;;5026548;28;20025;-78
2023/05/14 09:33:09;;;;;;;8.30;6.50;;;;;;;;;;5029646;28;20048;-75
2023/05/14 09:35:34;;;;;;;5.47;5.07;;;;;;;;;;5009417;28;20092;-79
2023/05/14 09:37:59;;;;;;;6.55;6.05;;;;;;;;;;5018522;28;20025;-77
2023/05/14 09:40:26;;;;;;;8.23;7.53;;;;;;;;;;5018465;28;20024;-78
2023/05/14 09:42:51;;;;;;;5.55;5.15;;;;;;;;;;5023819;28;20071;-77
2023/05/14 09:45:17;;;;;;;12.35;5.90;;;;;;;;;;5042669;28;20040;-76
2023/05/14 09:47:45;;;;;;;5.93;5.05;;;;;;;;;;5010681;28;20032;-79
2023/05/14 09:50:11;;;;;;;6.53;5.53;;;;;;;;;;5013955;28;20033;-75
2023/05/14 09:52:38;;;;;;;6.50;5.82;;;;;;;;;;5019791;28;20056;-81
2023/05/14 09:55:03;;;;;;;5.13;4.72;;;;;;;;;;5030287;28;20059;-75
2023/05/14 09:57:29;;;;;;;5.32;4.63;;;;;;;;;;5044858;28;20021;-78
2023/05/14 09:59:54;;;;;;;6.68;6.07;;;;;;;;;;5040875;28;20505;-78
2023/05/14 10:02:36;;;;;;;8.30;6.95;;;;;;;;;;5016779;28;20111;-78
2023/05/14 10:05:02;;;;;;;7.55;6.55;;;;;;;;;;5027541;28;20064;-77
2023/05/14 10:07:36;;;;;;;6.03;5.55;;;;;;;;;;5022450;28;20013;-77
2023/05/14 10:10:05;;;;;;;8.18;6.68;;;;;;;;;;5040280;28;20039;-77
2023/05/14 10:12:33;;;;;;;7.40;6.70;;;;;;;;;;5027710;28;20490;-79
2023/05/14 10:15:00;;;;;;;6.68;6.07;;;;;;;;;;5035344;28;20517;-77
2023/05/14 10:17:28;;;;;;;5.75;5.35;;;;;;;;;;5042284;28;20013;-78
2023/05/14 10:20:11;;;;;;;7.53;6.78;;;;;;;;;;5018738;28;20030;-79
2023/05/14 10:22:42;;;;;;;7.85;6.40;;;;;;;;;;5023793;28;20038;-79
2023/05/14 10:25:09;;;;;;;7.38;6.78;;;;;;;;;;5020946;28;20057;-77
2023/05/14 10:27:35;;;;;;;6.90;6.22;;;;;;;;;;4991577;28;20072;-78
2023/05/14 10:30:04;;;;;;;6.03;5.43;;;;;;;;;;5016469;28;20064;-76
2023/05/14 10:32:31;;;;;;;7.38;5.97;;;;;;;;;;5030172;28;20017;-76
2023/05/14 10:34:58;;;;;;;6.95;6.20;;;;;;;;;;5047855;28;20112;-79
2023/05/14 10:37:24;;;;;;;6.63;6.13;;;;;;;;;;5013740;28;20087;-74
2023/05/14 10:39:53;;;;;;;9.43;6.78;;;;;;;;;;5037041;28;20509;-78
2023/05/14 10:42:26;;;;;;;8.38;6.18;;;;;;;;;;5026038;28;20025;-81
2023/05/14 10:45:11;;;;;;;9.80;7.13;;;;;;;;;;5039544;28;20033;-82
2023/05/14 10:47:45;;;;;;;9.15;7.55;;;;;;;;;;5040568;28;20024;-81
2023/05/14 10:50:16;;;;;;;7.80;7.20;;;;;;;;;;5037638;28;20052;-81
2023/05/14 10:55:47;;;;;;;9.60;8.65;;;;;;;;;;5033807;28;20053;-75
2023/05/14 10:58:13;;;;;;;8.02;7.43;;;;;;;;;;5024601;28;20105;-80
2023/05/14 11:00:56;;;;;;;8.43;7.82;;;;;;;;;;5027599;28;20024;-81
2023/05/14 11:03:22;;;;;;;7.30;6.80;;;;;;;;;;5042306;28;20439;-80
2023/05/14 11:05:58;;;;;;;8.13;7.53;;;;;;;;;;5012057;28;20075;-81
2023/05/14 11:08:25;;;;;;;7.88;7.38;;;;;;;;;;5017508;28;20483;-80
2023/05/14 11:10:50;;;;;;;9.02;8.23;;;;;;;;;;4997710;28;20550;-76
2023/05/14 11:13:17;;;;;;;7.35;6.78;;;;;;;;;;5024149;28;20093;-79
2023/05/14 11:15:46;;;;;;;8.50;7.97;;;;;;;;;;5014607;28;20067;-76
2023/05/14 11:18:12;;;;;;;8.05;7.43;;;;;;;;;;5012544;28;20026;-79
2023/05/14 11:21:08;;;;;;;6.47;5.97;;;;;;;;;;5042076;28;20036;-81
2023/05/14 11:23:37;;;;;;;8.82;8.13;;;;;;;;;;5016521;28;20024;-82
2023/05/14 11:26:02;;;;;;;7.93;7.22;;;;;;;;;;5028132;28;20033;-79
2023/05/14 11:31:51;;;;;;;7.75;7.15;;;;;;;;;;5013634;28;20048;-79
2023/05/14 11:34:36;;;;;;;7.47;6.93;;;;;;;;;;5016321;28;20379;-79
2023/05/14 11:37:23;;;;;;;6.57;6.07;;;;;;;;;;4988293;28;20029;-79
2023/05/14 11:42:52;;;;;;;9.52;8.73;;;;;;;;;;5039219;28;20036;-80
2023/05/14 11:45:28;;;;;;;10.48;8.85;;;;;;;;;;5007228;28;20144;-78
2023/05/14 11:47:54;;;;;;;9.73;8.93;;;;;;;;;;5045964;28;20031;-79
2023/05/14 11:50:20;;;;;;;10.02;8.95;;;;;;;;;;5039913;28;20092;-79
2023/05/14 11:52:55;;;;;;;11.23;10.35;;;;;;;;;;5034306;28;20005;-81
2023/05/14 11:55:20;;;;;;;9.32;8.63;;;;;;;;;;5040584;28;20204;-77
2023/05/14 11:57:45;;;;;;;10.05;9.25;;;;;;;;;;5051662;28;20021;-77
2023/05/14 12:00:13;;;;;;;10.07;9.38;;;;;;;;;;5027756;28;20094;-78
2023/05/14 12:02:39;;;;;;;10.93;9.90;;;;;;;;;;5031103;28;20441;-77
2023/05/14 12:05:11;;;;;;;11.20;10.20;;;;;;;;;;5031024;28;20041;-79
2023/05/14 12:07:38;;;;;;;11.68;10.57;;;;;;;;;;5030705;28;20025;-75
2023/05/14 12:10:03;;;;;;;10.75;9.82;;;;;;;;;;4990029;28;20028;-78
2023/05/14 12:12:44;;;;;;;12.20;11.10;;;;;;;;;;5034486;28;20017;-77
2023/05/14 12:15:10;;;;;;;12.50;10.18;;;;;;;;;;5048425;28;20025;-79
2023/05/14 12:17:57;;;;;;;10.85;9.85;;;;;;;;;;5051411;28;20631;-81
2023/05/14 12:20:47;;;;;;;11.30;10.50;;;;;;;;;;5037568;28;20017;-80
2023/05/14 12:26:28;;;;;;;12.25;11.25;;;;;;;;;;5017430;28;20514;-80
2023/05/14 12:29:00;;;;;;;10.85;10.15;;;;;;;;;;5040511;28;20624;-80
2023/05/14 12:31:35;;;;;;;11.20;10.30;;;;;;;;;;5038763;28;20494;-79
2023/05/14 12:34:28;;;;;;;11.93;10.77;;;;;;;;;;5034819;28;20025;-80
2023/05/14 12:36:59;;;;;;;10.43;9.50;;;;;;;;;;5020003;28;20025;-81
2023/05/14 12:39:24;;;;;;;9.93;8.93;;;;;;;;;;5039375;28;20025;-78
2023/05/14 12:41:50;;;;;;;11.55;10.48;;;;;;;;;;5032685;28;20041;-77
2023/05/14 12:44:15;;;;;;;12.35;11.48;;;;;;;;;;5018334;28;20030;-79
2023/05/14 12:46:40;;;;;;;12.57;11.43;;;;;;;;;;5164286;23;20063;-79
2023/05/14 12:49:05;;;;;;;11.43;10.52;;;;;;;;;;5080603;28;20679;-77
2023/05/14 12:51:31;;;;;;;11.45;10.50;;;;;;;;;;5077451;28;20112;-78
2023/05/14 12:53:59;;;;;;;12.75;11.85;;;;;;;;;;5075969;28;20020;-79
2023/05/14 12:56:27;;;;;;;12.25;11.20;;;;;;;;;;5071826;28;20051;-80
2023/05/14 12:58:55;;;;;;;11.77;10.80;;;;;;;;;;5063951;28;20052;-78
2023/05/14 13:01:21;;;;;;;12.15;11.15;;;;;;;;;;5067287;28;20047;-76
2023/05/14 13:03:46;;;;;;;12.27;11.25;;;;;;;;;;5064671;28;20714;-76
2023/05/14 13:06:21;;;;;;;11.98;11.18;;;;;;;;;;5066894;28;20032;-78
2023/05/14 13:08:46;;;;;;;13.07;11.88;;;;;;;;;;5072885;28;20020;-77
2023/05/14 13:11:11;;;;;;;12.30;11.20;;;;;;;;;;5068126;28;20458;-81
2023/05/14 13:13:46;;;;;;;12.25;11.35;;;;;;;;;;5077559;28;20036;-81
2023/05/14 13:16:30;;;;;;;10.68;9.88;;;;;;;;;;5074778;28;20023;-81
2023/05/14 13:19:02;;;;;;;12.68;11.68;;;;;;;;;;5073439;28;20040;-79
2023/05/14 13:24:33;;;;;;;11.65;10.65;;;;;;;;;;5080105;28;20039;-77
2023/05/14 13:27:34;;;;;;;12.77;11.45;;;;;;;;;;5072483;28;20045;-80
2023/05/14 13:35:36;;;;;;;10.73;9.93;;;;;;;;;;5059361;28;20525;-77
2023/05/14 13:40:38;;;;;;;10.30;9.48;;;;;;;;;;5078581;23;20049;-81
2023/05/14 13:43:07;;;;;;;14.07;10.25;;;;;;;;;;5062977;28;20067;-77
2023/05/14 13:45:37;;;;;;;9.85;9.05;;;;;;;;;;5080444;28;20882;-83
2023/05/14 13:48:05;;;;;;;11.10;8.95;;;;;;;;;;5091687;28;20032;-81
2023/05/14 13:50:57;;;;;;;10.13;9.18;;;;;;;;;;5108359;28;20075;-83
2023/05/14 14:05:27;;;;;;;13.75;12.38;;;;;;;;;;5080951;28;20043;-80
2023/05/14 14:08:17;;;;;;;12.85;11.48;;;;;;;;;;5074606;28;20056;-80
2023/05/14 14:10:48;;;;;;;13.18;11.98;;;;;;;;;;5062922;28;20027;-82
2023/05/14 14:13:15;;;;;;;13.75;12.43;;;;;;;;;;5056925;28;20040;-79
2023/05/14 14:16:09;;;;;;;13.43;12.43;;;;;;;;;;5078010;28;20021;-81
2023/05/14 14:18:35;;;;;;;14.25;13.07;;;;;;;;;;5040486;28;20025;-81
2023/05/14 14:21:11;;;;;;;15.55;13.98;;;;;;;;;;5094623;28;20948;-81
2023/05/14 14:23:48;;;;;;;14.52;13.10;;;;;;;;;;5082645;28;20032;-80
2023/05/14 14:26:14;;;;;;;13.40;12.30;;;;;;;;;;5064662;28;20673;-78
2023/05/14 14:29:00;;;;;;;16.83;15.23;;;;;;;;;;5064382;28;20017;-80
2023/05/14 14:31:42;;;;;;;15.63;14.00;;;;;;;;;;5072819;28;20056;-79
2023/05/14 14:34:08;;;;;;;12.68;11.70;;;;;;;;;;5044385;28;20035;-81
2023/05/14 14:39:37;;;;;;;14.57;13.38;;;;;;;;;;5084151;28;20034;-76
2023/05/14 14:42:07;;;;;;;14.30;13.20;;;;;;;;;;5088979;28;20069;-80
2023/05/14 14:48:01;;;;;;;13.95;12.90;;;;;;;;;;5097301;28;20052;-83
2023/05/14 14:50:26;;;;;;;13.30;12.15;;;;;;;;;;5061272;28;20024;-83
2023/05/14 14:52:51;;;;;;;15.00;13.80;;;;;;;;;;5072688;28;20054;-78
2023/05/14 14:55:16;;;;;;;16.08;14.65;;;;;;;;;;5055569;28;20025;-77
2023/05/14 14:57:42;;;;;;;13.48;12.38;;;;;;;;;;5050973;28;20055;-79
2023/05/14 15:00:08;;;;;;;14.60;13.50;;;;;;;;;;5061755;28;20162;-78
2023/05/14 15:02:40;;;;;;;14.25;13.15;;;;;;;;;;5068876;28;20190;-77
2023/05/14 15:05:40;;;;;;;15.73;14.30;;;;;;;;;;5069611;28;20024;-80
2023/05/14 15:08:06;;;;;;;13.15;12.10;;;;;;;;;;5000586;28;20071;-77
2023/05/14 15:10:43;;;;;;;13.05;12.10;;;;;;;;;;5038166;28;20048;-77
2023/05/14 15:13:21;;;;;;;14.45;13.35;;;;;;;;;;5058904;28;20024;-79
2023/05/14 15:15:46;;;;;;;16.75;15.13;;;;;;;;;;5054686;28;20035;-76
2023/05/14 15:18:39;;;;;;;14.05;12.77;;;;;;;;;;5077248;28;20056;-82
2023/05/14 15:21:05;;;;;;;13.07;11.77;;;;;;;;;;5055691;28;20119;-76
2023/05/14 15:23:30;;;;;;;14.23;13.05;;;;;;;;;;5068885;28;20112;-76
2023/05/14 15:25:55;;;;;;;14.70;13.32;;;;;;;;;;5064023;28;20398;-78
2023/05/14 15:28:21;;;;;;;13.20;12.10;;;;;;;;;;5048995;28;20016;-74
2023/05/14 15:30:46;;;;;;;11.95;11.02;;;;;;;;;;5060430;28;20032;-76